sensor_id;sensor_type;location;lat;lon;timestamp;temperature;humidity
50560;DHT22;36510;52.610;13.468;2022-12-10T00:03:58;2.20;47.50
50560;DHT22;36510;52.610;13.468;2022-12-10T00:08:49;2.20;47.50
50560;DHT22;36510;52.610;13.468;2022-12-10T00:13:40;2.30;47.60
50560;DHT22;36510;52.610;13.468;2022-12-10T00:18:31;2.30;46.90
50560;DHT22;36510;52.610;13.468;2022-12-10T00:23:22;2.30;47.10
50560;DHT22;36510;52.610;13.468;2022-12-10T00:28:12;2.30;47.00
50560;DHT22;36510;52.610;13.468;2022-12-10T00:33:03;2.30;46.60
50560;DHT22;36510;52.610;13.468;2022-12-10T00:37:53;2.40;46.70
50560;DHT22;36510;52.610;13.468;2022-12-10T00:42:44;2.40;46.50
50560;DHT22;36510;52.610;13.468;2022-12-10T00:47:34;2.40;46.50
50560;DHT22;36510;52.610;13.468;2022-12-10T00:52:25;2.40;46.50
50560;DHT22;36510;52.610;13.468;2022-12-10T00:57:15;2.40;46.30
50560;DHT22;36510;52.610;13.468;2022-12-10T01:02:06;2.40;46.30
50560;DHT22;36510;52.610;13.468;2022-12-10T01:06:56;2.40;46.30
50560;DHT22;36510;52.610;13.468;2022-12-10T01:11:49;2.50;46.60
50560;DHT22;36510;52.610;13.468;2022-12-10T01:16:40;2.50;46.90
50560;DHT22;36510;52.610;13.468;2022-12-10T01:21:30;2.50;46.50
50560;DHT22;36510;52.610;13.468;2022-12-10T01:26:23;2.50;46.30
50560;DHT22;36510;52.610;13.468;2022-12-10T01:31:18;2.50;45.90
50560;DHT22;36510;52.610;13.468;2022-12-10T01:36:21;2.50;46.30
50560;DHT22;36510;52.610;13.468;2022-12-10T01:41:21;2.50;46.00
50560;DHT22;36510;52.610;13.468;2022-12-10T01:46:11;2.50;45.90
50560;DHT22;36510;52.610;13.468;2022-12-10T01:51:02;2.40;45.70
50560;DHT22;36510;52.610;13.468;2022-12-10T01:55:52;2.30;45.70
50560;DHT22;36510;52.610;13.468;2022-12-10T02:11:24;2.40;45.60
50560;DHT22;36510;52.610;13.468;2022-12-10T02:16:25;2.30;45.30
50560;DHT22;36510;52.610;13.468;2022-12-10T02:21:24;2.20;45.60
50560;DHT22;36510;52.610;13.468;2022-12-10T02:31:23;2.20;45.30
50560;DHT22;36510;52.610;13.468;2022-12-10T02:36:15;2.20;45.80
50560;DHT22;36510;52.610;13.468;2022-12-10T02:41:14;2.20;45.50
50560;DHT22;36510;52.610;13.468;2022-12-10T02:46:06;2.30;45.80
50560;DHT22;36510;52.610;13.468;2022-12-10T02:50:57;2.30;45.60
50560;DHT22;36510;52.610;13.468;2022-12-10T02:56:05;2.20;45.70
50560;DHT22;36510;52.610;13.468;2022-12-10T03:01:09;2.20;45.30
50560;DHT22;36510;52.610;13.468;2022-12-10T03:11:15;2.10;45.80
50560;DHT22;36510;52.610;13.468;2022-12-10T03:16:07;2.10;45.70
50560;DHT22;36510;52.610;13.468;2022-12-10T03:21:03;2.10;45.80
50560;DHT22;36510;52.610;13.468;2022-12-10T03:25:54;2.10;45.60
50560;DHT22;36510;52.610;13.468;2022-12-10T03:30:45;2.20;45.60
50560;DHT22;36510;52.610;13.468;2022-12-10T03:35:38;2.20;45.30
50560;DHT22;36510;52.610;13.468;2022-12-10T03:40:29;2.20;45.30
50560;DHT22;36510;52.610;13.468;2022-12-10T03:45:19;2.20;45.00
50560;DHT22;36510;52.610;13.468;2022-12-10T03:50:10;2.20;44.90
50560;DHT22;36510;52.610;13.468;2022-12-10T03:55:01;2.20;45.30
50560;DHT22;36510;52.610;13.468;2022-12-10T03:59:51;2.20;45.80
50560;DHT22;36510;52.610;13.468;2022-12-10T04:04:42;2.20;45.70
50560;DHT22;36510;52.610;13.468;2022-12-10T04:09:33;2.20;45.80
50560;DHT22;36510;52.610;13.468;2022-12-10T04:14:24;2.20;46.00
50560;DHT22;36510;52.610;13.468;2022-12-10T04:19:33;2.20;46.20
50560;DHT22;36510;52.610;13.468;2022-12-10T04:24:25;2.20;46.30
50560;DHT22;36510;52.610;13.468;2022-12-10T04:29:34;2.20;46.20
50560;DHT22;36510;52.610;13.468;2022-12-10T04:34:25;2.30;46.80
50560;DHT22;36510;52.610;13.468;2022-12-10T04:39:16;2.30;46.40
50560;DHT22;36510;52.610;13.468;2022-12-10T04:44:07;2.30;46.10
50560;DHT22;36510;52.610;13.468;2022-12-10T04:48:58;2.30;46.40
50560;DHT22;36510;52.610;13.468;2022-12-10T04:53:49;2.30;46.50
50560;DHT22;36510;52.610;13.468;2022-12-10T04:58:39;2.40;46.40
50560;DHT22;36510;52.610;13.468;2022-12-10T05:03:32;2.40;46.00
50560;DHT22;36510;52.610;13.468;2022-12-10T05:08:23;2.50;45.60
50560;DHT22;36510;52.610;13.468;2022-12-10T05:13:14;2.40;45.40
50560;DHT22;36510;52.610;13.468;2022-12-10T05:18:04;2.40;45.20
50560;DHT22;36510;52.610;13.468;2022-12-10T05:22:55;2.40;45.00
50560;DHT22;36510;52.610;13.468;2022-12-10T05:28:04;2.40;44.00
50560;DHT22;36510;52.610;13.468;2022-12-10T05:32:54;2.30;44.00
50560;DHT22;36510;52.610;13.468;2022-12-10T05:37:45;2.30;44.20
50560;DHT22;36510;52.610;13.468;2022-12-10T05:42:35;2.30;44.10
50560;DHT22;36510;52.610;13.468;2022-12-10T05:47:26;2.40;43.70
